createdAt,value
2022-08-26T00:00:42.973Z,24.80
2022-08-26T00:03:16.426Z,23.40
2022-08-26T00:05:51.017Z,18.10
2022-08-26T00:08:24.464Z,24.00
2022-08-26T00:10:56.204Z,23.80
2022-08-26T00:13:31.932Z,23.20
2022-08-26T00:16:04.702Z,22.60
2022-08-26T00:18:38.826Z,25.80
2022-08-26T00:21:12.677Z,21.60
2022-08-26T00:23:44.955Z,23.10
2022-08-26T00:26:17.685Z,24.80
2022-08-26T00:28:50.035Z,25.30
2022-08-26T00:31:21.887Z,26.00
2022-08-26T00:33:53.759Z,25.00
2022-08-26T00:36:25.786Z,19.70
2022-08-26T00:39:01.945Z,23.30
2022-08-26T00:41:34.376Z,20.70
2022-08-26T00:44:06.925Z,24.10
2022-08-26T00:46:46.935Z,21.80
2022-08-26T00:49:24.622Z,24.60
2022-08-26T00:51:59.954Z,24.20
2022-08-26T00:54:36.005Z,23.10
2022-08-26T00:57:16.235Z,21.00
2022-08-26T00:59:52.419Z,21.40
2022-08-26T01:02:24.838Z,24.80
2022-08-26T01:05:00.764Z,20.50
2022-08-26T01:07:34.967Z,21.20
2022-08-26T01:10:11.588Z,23.40
2022-08-26T01:12:47.042Z,24.70
2022-08-26T01:15:24.156Z,24.00
2022-08-26T01:17:56.016Z,17.70
2022-08-26T01:20:35.220Z,28.10
2022-08-26T01:23:10.694Z,25.20
2022-08-26T01:25:46.554Z,22.20
2022-08-26T01:28:24.139Z,24.90
2022-08-26T01:30:57.957Z,21.50
2022-08-26T01:33:42.081Z,27.60
2022-08-26T01:36:15.778Z,23.00
2022-08-26T01:38:47.973Z,22.00
2022-08-26T01:41:27.540Z,18.60
2022-08-26T01:44:02.330Z,21.00
2022-08-26T01:46:35.322Z,23.60
2022-08-26T01:49:09.729Z,27.10
2022-08-26T01:51:44.490Z,21.10
2022-08-26T01:54:16.631Z,22.00
2022-08-26T01:56:53.964Z,22.10
2022-08-26T01:59:26.689Z,20.20
2022-08-26T02:01:59.087Z,20.30
2022-08-26T02:04:34.775Z,16.50
2022-08-26T02:07:10.058Z,16.80
2022-08-26T02:09:42.825Z,19.20
2022-08-26T02:12:16.251Z,20.10
2022-08-26T02:14:53.841Z,23.30
2022-08-26T02:17:30.340Z,15.90
2022-08-26T02:20:03.415Z,19.80
2022-08-26T02:22:35.718Z,22.90
2022-08-26T02:25:16.171Z,20.70
2022-08-26T02:27:50.765Z,16.80
2022-08-26T02:30:25.347Z,18.60
2022-08-26T02:32:59.526Z,17.20
2022-08-26T02:35:31.979Z,16.70
2022-08-26T02:38:09.864Z,15.70
2022-08-26T02:40:44.087Z,20.30
2022-08-26T02:43:17.110Z,20.20
2022-08-26T02:45:49.741Z,15.60
2022-08-26T02:48:22.783Z,15.50
2022-08-26T02:50:56.240Z,17.20
2022-08-26T02:53:28.127Z,14.10
2022-08-26T02:56:04.136Z,15.10
2022-08-26T02:58:36.382Z,14.10
2022-08-26T03:01:08.769Z,16.50
2022-08-26T03:03:41.222Z,17.20
2022-08-26T03:06:13.450Z,16.80
2022-08-26T03:08:45.499Z,20.10
2022-08-26T03:11:19.778Z,16.10
2022-08-26T03:13:51.850Z,14.90
2022-08-26T03:16:23.796Z,18.30
2022-08-26T03:18:55.650Z,13.70
2022-08-26T03:21:27.772Z,12.20
2022-08-26T03:24:00.398Z,11.60
2022-08-26T03:26:32.569Z,12.60
2022-08-26T03:29:22.933Z,16.50
2022-08-26T03:31:55.531Z,13.30
2022-08-26T03:34:27.812Z,13.70
2022-08-26T03:36:59.701Z,16.70
2022-08-26T03:39:31.872Z,13.90
2022-08-26T03:42:05.523Z,14.20
2022-08-26T03:44:42.028Z,12.30
2022-08-26T03:47:14.264Z,16.70
2022-08-26T03:49:46.076Z,18.80
2022-08-26T03:52:18.102Z,16.30
2022-08-26T03:54:49.913Z,15.50
2022-08-26T03:57:21.755Z,16.00
2022-08-26T03:59:54.164Z,15.50
2022-08-26T04:02:26.979Z,15.70
2022-08-26T04:04:58.777Z,18.20
2022-08-26T04:07:32.041Z,16.90
2022-08-26T04:10:06.139Z,16.40
2022-08-26T04:12:41.598Z,12.00
2022-08-26T04:15:17.744Z,13.30
2022-08-26T04:17:50.131Z,11.80
2022-08-26T04:20:22.276Z,15.10
2022-08-26T04:22:54.698Z,14.50
2022-08-26T04:25:27.049Z,11.30
2022-08-26T04:27:59.390Z,13.90
2022-08-26T04:30:31.346Z,13.90
2022-08-26T04:33:12.603Z,13.40
2022-08-26T04:35:45.338Z,13.30
2022-08-26T04:38:20.997Z,13.50
2022-08-26T04:40:53.662Z,11.30
2022-08-26T04:43:28.931Z,10.30
2022-08-26T04:46:04.043Z,13.80
2022-08-26T04:48:39.404Z,11.30
2022-08-26T04:51:11.664Z,15.00
2022-08-26T04:53:43.853Z,11.60
2022-08-26T04:56:16.752Z,12.50
2022-08-26T04:58:49.666Z,14.40
2022-08-26T05:01:22.054Z,11.40
2022-08-26T05:03:55.904Z,12.20
2022-08-26T05:06:28.181Z,12.00
2022-08-26T05:09:00.263Z,12.20
2022-08-26T05:11:34.314Z,15.00
2022-08-26T05:14:06.265Z,15.80
2022-08-26T05:16:38.959Z,14.60
2022-08-26T05:19:12.559Z,21.30
2022-08-26T05:21:45.275Z,20.00
2022-08-26T05:24:19.746Z,20.30
2022-08-26T05:26:51.612Z,15.80
2022-08-26T05:29:23.647Z,14.20
2022-08-26T05:31:56.035Z,13.00
2022-08-26T05:34:30.270Z,13.30
2022-08-26T05:37:02.696Z,14.10
2022-08-26T05:39:36.073Z,16.60
2022-08-26T05:42:08.467Z,16.70
2022-08-26T05:44:55.455Z,13.30
2022-08-26T05:47:28.393Z,15.80
2022-08-26T05:50:00.670Z,11.10
2022-08-26T05:52:32.482Z,13.30
2022-08-26T05:55:05.001Z,12.20
2022-08-26T05:57:42.244Z,11.90
2022-08-26T06:00:17.605Z,10.30
2022-08-26T06:02:49.511Z,10.70
2022-08-26T06:05:22.096Z,13.60
2022-08-26T06:08:14.239Z,19.70
2022-08-26T06:10:51.509Z,13.70
2022-08-26T06:13:26.877Z,14.40
2022-08-26T06:16:00.501Z,17.50
2022-08-26T06:18:36.470Z,12.00
2022-08-26T06:21:18.077Z,16.50
2022-08-26T06:24:11.712Z,15.00
2022-08-26T06:26:50.589Z,20.20
2022-08-26T06:29:26.133Z,15.90
2022-08-26T06:31:59.800Z,9.20
2022-08-26T06:34:32.737Z,23.70
2022-08-26T06:37:06.379Z,15.50
2022-08-26T06:39:41.128Z,12.90
2022-08-26T06:42:13.600Z,20.60
2022-08-26T06:44:47.446Z,14.90
2022-08-26T06:47:19.884Z,14.70
2022-08-26T06:49:52.627Z,9.90
2022-08-26T06:52:24.708Z,12.00
2022-08-26T06:54:56.602Z,17.50
2022-08-26T06:57:28.722Z,17.30
2022-08-26T07:00:04.760Z,16.90
2022-08-26T07:02:36.975Z,11.70
2022-08-26T07:05:11.459Z,15.80
2022-08-26T07:07:43.378Z,13.20
2022-08-26T07:10:15.942Z,17.90
2022-08-26T07:12:49.207Z,15.30
2022-08-26T07:15:23.903Z,12.70
2022-08-26T07:18:03.686Z,12.70
2022-08-26T07:20:37.131Z,11.90
2022-08-26T07:23:10.208Z,10.50
2022-08-26T07:25:44.440Z,10.20
2022-08-26T07:28:16.357Z,17.80
2022-08-26T07:30:48.640Z,15.60
2022-08-26T07:33:22.705Z,12.80
2022-08-26T07:35:54.769Z,17.60
2022-08-26T07:38:26.769Z,12.60
2022-08-26T07:40:59.383Z,13.90
2022-08-26T07:43:32.493Z,10.00
2022-08-26T07:46:05.205Z,11.60
2022-08-26T07:48:38.048Z,10.20
2022-08-26T07:51:10.241Z,7.90
2022-08-26T07:53:42.689Z,9.90
2022-08-26T07:56:15.038Z,10.60
2022-08-26T07:58:51.629Z,12.50
2022-08-26T08:01:26.023Z,11.00
2022-08-26T08:03:59.089Z,11.90
2022-08-26T08:06:35.393Z,10.00
2022-08-26T08:09:09.249Z,13.10
2022-08-26T08:11:41.614Z,10.30
2022-08-26T08:14:15.479Z,13.00
2022-08-26T08:16:51.105Z,17.30
2022-08-26T08:19:29.936Z,19.00
2022-08-26T08:22:17.968Z,13.00
2022-08-26T08:24:52.988Z,13.80
2022-08-26T08:27:25.902Z,9.90
2022-08-26T08:29:58.012Z,15.50
2022-08-26T08:32:30.345Z,15.10
2022-08-26T08:35:10.853Z,12.70
2022-08-26T08:37:44.320Z,15.50
2022-08-26T08:40:18.637Z,15.40
2022-08-26T08:42:57.705Z,15.70
2022-08-26T08:45:37.299Z,10.80
2022-08-26T08:48:15.301Z,10.60
2022-08-26T08:50:51.469Z,16.90
2022-08-26T08:53:30.326Z,9.30
2022-08-26T08:56:20.757Z,11.30
2022-08-26T08:59:04.666Z,10.00
2022-08-26T09:01:52.581Z,7.80
2022-08-26T09:05:05.263Z,14.30
2022-08-26T09:07:41.567Z,12.20
2022-08-26T09:10:28.566Z,9.00
2022-08-26T09:13:02.452Z,11.30
2022-08-26T09:15:43.098Z,10.60
2022-08-26T09:18:28.264Z,16.40
2022-08-26T09:21:03.618Z,13.60
2022-08-26T09:23:39.689Z,12.70
2022-08-26T09:26:19.932Z,15.10
2022-08-26T09:28:57.937Z,8.30
2022-08-26T09:31:33.522Z,8.00
2022-08-26T09:34:17.163Z,10.80
2022-08-26T09:36:51.932Z,15.30
2022-08-26T09:39:34.143Z,10.60
2022-08-26T09:42:12.816Z,10.50
2022-08-26T09:44:58.557Z,12.20
2022-08-26T09:47:33.403Z,13.20
2022-08-26T09:50:12.433Z,10.10
2022-08-26T09:52:44.885Z,10.10
2022-08-26T09:55:23.741Z,13.80
2022-08-26T09:57:58.239Z,14.40
2022-08-26T10:00:38.533Z,25.00
2022-08-26T10:03:24.274Z,21.50
2022-08-26T10:06:01.414Z,15.50
2022-08-26T10:08:38.453Z,21.40
2022-08-26T10:11:20.507Z,41.80
2022-08-26T10:13:59.388Z,13.00
2022-08-26T10:16:36.100Z,16.90
2022-08-26T10:19:13.869Z,12.70
2022-08-26T10:21:55.017Z,13.00
2022-08-26T10:24:33.055Z,10.40
2022-08-26T10:27:12.215Z,11.70
2022-08-26T10:29:50.996Z,12.80
2022-08-26T10:32:32.118Z,12.80
2022-08-26T10:35:08.288Z,13.60
2022-08-26T10:37:45.194Z,15.20
2022-08-26T10:40:24.295Z,14.50
2022-08-26T10:43:09.939Z,8.30
2022-08-26T10:45:48.919Z,17.70
2022-08-26T10:48:35.873Z,13.70
2022-08-26T10:51:10.725Z,17.90
2022-08-26T10:53:52.167Z,8.70
2022-08-26T10:56:45.174Z,10.80
2022-08-26T10:59:30.369Z,12.20
2022-08-26T11:02:09.949Z,11.80
2022-08-26T11:04:50.010Z,12.50
2022-08-26T11:07:46.185Z,13.50
2022-08-26T11:11:04.626Z,10.20
2022-08-26T11:14:02.820Z,14.30
2022-08-26T11:16:46.607Z,9.70
2022-08-26T11:20:00.870Z,7.50
2022-08-26T11:22:47.616Z,9.00
2022-08-26T11:25:21.213Z,9.20
2022-08-26T11:28:07.239Z,12.50
2022-08-26T11:30:57.839Z,7.00
2022-08-26T11:33:51.648Z,11.70
2022-08-26T11:36:41.433Z,4.60
2022-08-26T11:39:28.828Z,11.80
2022-08-26T11:42:04.256Z,13.30
2022-08-26T11:44:49.588Z,11.80
2022-08-26T11:47:30.732Z,11.90
2022-08-26T11:50:16.651Z,8.30
2022-08-26T11:53:01.822Z,12.60
2022-08-26T11:55:36.806Z,11.00
2022-08-26T11:58:12.971Z,11.30
2022-08-26T12:00:54.378Z,15.80
2022-08-26T12:03:35.783Z,14.60
2022-08-26T12:06:29.620Z,13.90
2022-08-26T12:09:04.266Z,8.70
2022-08-26T12:11:40.343Z,9.40
2022-08-26T12:14:21.240Z,11.80
2022-08-26T12:16:56.418Z,8.90
2022-08-26T12:19:32.985Z,11.70
2022-08-26T12:22:08.629Z,10.00
2022-08-26T12:24:47.629Z,17.50
2022-08-26T12:27:24.757Z,10.50
2022-08-26T12:30:12.218Z,9.90
2022-08-26T12:32:57.916Z,16.00
2022-08-26T12:35:30.784Z,14.50
2022-08-26T12:38:05.378Z,15.90
2022-08-26T12:40:44.272Z,12.60
2022-08-26T12:43:40.719Z,11.00
2022-08-26T12:46:17.553Z,13.50
2022-08-26T12:48:52.839Z,12.30
2022-08-26T12:51:30.144Z,16.30
2022-08-26T12:54:06.888Z,13.00
2022-08-26T12:56:40.908Z,19.40
2022-08-26T12:59:25.201Z,9.00
2022-08-26T13:01:57.495Z,8.90
2022-08-26T13:04:42.206Z,10.30
2022-08-26T13:07:25.325Z,9.40
2022-08-26T13:09:59.022Z,8.20
2022-08-26T13:12:33.792Z,11.40
2022-08-26T13:15:07.956Z,13.20
2022-08-26T13:17:40.112Z,10.20
2022-08-26T13:20:15.377Z,14.90
2022-08-26T13:22:58.599Z,9.00
2022-08-26T13:25:43.895Z,10.90
2022-08-26T13:28:16.325Z,14.70
2022-08-26T13:30:51.108Z,9.50
2022-08-26T13:33:25.694Z,10.50
2022-08-26T13:35:58.435Z,9.20
2022-08-26T13:38:33.137Z,9.50
2022-08-26T13:41:06.596Z,8.90
2022-08-26T13:43:38.765Z,12.20
2022-08-26T13:46:10.986Z,17.20
2022-08-26T13:48:43.414Z,9.20
2022-08-26T13:51:18.885Z,8.80
2022-08-26T13:53:50.998Z,12.60
2022-08-26T13:56:23.562Z,8.00
2022-08-26T13:58:55.671Z,12.90
2022-08-26T14:01:29.095Z,11.10
2022-08-26T14:04:02.905Z,10.80
2022-08-26T14:06:35.489Z,6.00
2022-08-26T14:09:07.503Z,11.20
2022-08-26T14:11:54.879Z,14.90
2022-08-26T14:14:27.510Z,14.90
2022-08-26T14:17:00.494Z,16.70
2022-08-26T14:19:33.583Z,8.60
2022-08-26T14:22:06.818Z,10.50
2022-08-26T14:24:39.005Z,12.70
2022-08-26T14:27:11.436Z,8.70
2022-08-26T14:29:44.568Z,12.50
2022-08-26T14:32:23.021Z,12.40
2022-08-26T14:34:55.240Z,11.50
2022-08-26T14:37:27.680Z,10.00
2022-08-26T14:40:00.129Z,15.40
2022-08-26T14:42:32.634Z,11.70
2022-08-26T14:45:09.550Z,13.10
2022-08-26T14:47:43.619Z,11.20
2022-08-26T14:50:21.229Z,10.00
2022-08-26T14:53:11.453Z,12.90
2022-08-26T14:55:45.558Z,11.60
2022-08-26T14:58:21.762Z,8.80
2022-08-26T15:00:53.789Z,11.00
2022-08-26T15:03:28.096Z,14.50
2022-08-26T15:06:01.069Z,14.60
2022-08-26T15:08:36.630Z,8.60
2022-08-26T15:11:08.931Z,7.60
2022-08-26T15:13:41.026Z,8.90
2022-08-26T15:16:13.532Z,8.20
2022-08-26T15:18:45.955Z,12.10
2022-08-26T15:21:19.158Z,8.70
2022-08-26T15:23:54.826Z,10.90
2022-08-26T15:26:34.962Z,11.70
2022-08-26T15:29:07.395Z,13.70
2022-08-26T15:31:39.799Z,8.20
2022-08-26T15:34:16.700Z,8.30
2022-08-26T15:36:49.815Z,11.90
2022-08-26T15:39:22.076Z,14.70
2022-08-26T15:41:56.281Z,15.20
2022-08-26T15:44:29.027Z,11.80
2022-08-26T15:47:01.307Z,15.00
2022-08-26T15:49:33.480Z,12.00
2022-08-26T15:52:06.196Z,7.60
2022-08-26T15:54:38.246Z,10.50
2022-08-26T15:57:12.427Z,7.50
2022-08-26T15:59:45.897Z,5.40
2022-08-26T16:02:18.248Z,14.20
2022-08-26T16:04:50.740Z,12.80
2022-08-26T16:07:24.125Z,16.40
2022-08-26T16:09:59.114Z,13.30
2022-08-26T16:12:31.403Z,9.40
2022-08-26T16:15:03.655Z,11.10
2022-08-26T16:17:35.797Z,13.60
2022-08-26T16:20:11.761Z,11.50
2022-08-26T16:22:44.604Z,11.60
2022-08-26T16:25:17.340Z,10.10
2022-08-26T16:27:49.422Z,11.00
2022-08-26T16:30:22.822Z,13.20
2022-08-26T16:32:55.713Z,6.10
2022-08-26T16:35:30.623Z,11.30
2022-08-26T16:38:03.219Z,7.70
2022-08-26T16:40:36.392Z,6.90
2022-08-26T16:43:08.483Z,12.60
2022-08-26T16:45:47.615Z,9.20
2022-08-26T16:48:23.592Z,12.00
2022-08-26T16:50:55.858Z,10.80
2022-08-26T16:53:28.076Z,9.40
2022-08-26T16:56:00.470Z,10.70
2022-08-26T16:58:35.872Z,19.90
2022-08-26T17:01:08.576Z,14.20
2022-08-26T17:03:40.758Z,11.90
2022-08-26T17:06:15.039Z,11.50
2022-08-26T17:08:48.506Z,18.80
2022-08-26T17:11:20.942Z,13.70
2022-08-26T17:13:53.318Z,13.30
2022-08-26T17:16:27.125Z,16.20
2022-08-26T17:19:00.301Z,16.20
2022-08-26T17:21:33.234Z,14.60
2022-08-26T17:24:07.263Z,14.00
2022-08-26T17:26:39.253Z,17.80
2022-08-26T17:29:11.649Z,8.90
2022-08-26T17:31:43.616Z,14.20
2022-08-26T17:34:15.506Z,14.00
2022-08-26T17:36:48.293Z,12.70
2022-08-26T17:39:20.423Z,12.70
2022-08-26T17:41:52.470Z,19.40
2022-08-26T17:44:24.618Z,9.20
2022-08-26T17:46:56.497Z,17.30
2022-08-26T17:49:28.859Z,15.40
2022-08-26T17:52:01.640Z,22.10
2022-08-26T17:54:33.807Z,30.50
2022-08-26T17:57:07.321Z,21.50
2022-08-26T17:59:44.988Z,30.20
2022-08-26T18:02:18.741Z,15.00
2022-08-26T18:04:51.272Z,21.80
2022-08-26T18:07:23.090Z,18.00
2022-08-26T18:09:57.577Z,24.20
2022-08-26T18:12:30.019Z,21.90
2022-08-26T18:15:02.645Z,21.40
2022-08-26T18:17:34.595Z,21.50
2022-08-26T18:20:08.419Z,18.40
2022-08-26T18:22:40.583Z,17.20
2022-08-26T18:25:16.698Z,17.90
2022-08-26T18:27:52.142Z,27.90
2022-08-26T18:30:25.422Z,21.60
2022-08-26T18:33:06.326Z,16.30
2022-08-26T18:35:41.960Z,19.60
2022-08-26T18:38:15.536Z,18.60
2022-08-26T18:40:48.066Z,16.40
2022-08-26T18:43:21.014Z,19.40
2022-08-26T18:46:04.127Z,21.30
2022-08-26T18:48:36.839Z,16.80
2022-08-26T18:51:12.512Z,14.00
2022-08-26T18:53:44.876Z,13.30
2022-08-26T18:56:18.837Z,15.40
2022-08-26T18:58:50.996Z,20.00
2022-08-26T19:01:27.550Z,18.00
2022-08-26T19:04:03.971Z,19.80
2022-08-26T19:06:38.967Z,14.10
2022-08-26T19:09:14.624Z,17.00
2022-08-26T19:11:49.634Z,23.20
2022-08-26T19:14:36.032Z,14.80
2022-08-26T19:17:07.999Z,9.70
2022-08-26T19:19:39.891Z,17.30
2022-08-26T19:22:11.887Z,12.00
2022-08-26T19:24:43.898Z,12.10
2022-08-26T19:27:15.871Z,12.60
2022-08-26T19:29:48.171Z,17.30
2022-08-26T19:32:24.344Z,14.40
2022-08-26T19:34:56.322Z,17.40
2022-08-26T19:37:28.264Z,12.10
2022-08-26T19:40:01.742Z,17.70
2022-08-26T19:42:33.637Z,13.90
2022-08-26T19:45:24.535Z,16.00
2022-08-26T19:47:57.342Z,16.60
2022-08-26T19:50:31.425Z,16.30
2022-08-26T19:53:04.791Z,12.60
2022-08-26T19:55:37.204Z,23.40
2022-08-26T19:58:10.005Z,16.40
2022-08-26T20:00:42.910Z,17.00
2022-08-26T20:03:15.930Z,18.90
2022-08-26T20:05:49.273Z,17.40
2022-08-26T20:08:24.122Z,15.30
2022-08-26T20:11:10.208Z,16.70
2022-08-26T20:13:42.719Z,18.50
2022-08-26T20:16:15.471Z,15.40
2022-08-26T20:19:05.309Z,16.50
2022-08-26T20:21:41.564Z,13.90
2022-08-26T20:24:18.320Z,20.80
2022-08-26T20:26:50.946Z,14.50
2022-08-26T20:29:23.526Z,14.10
2022-08-26T20:31:55.522Z,16.30
2022-08-26T20:34:27.646Z,13.70
2022-08-26T20:37:00.544Z,19.80
2022-08-26T20:39:32.826Z,17.80
2022-08-26T20:42:06.846Z,19.50
2022-08-26T20:44:54.779Z,16.30
2022-08-26T20:47:27.105Z,16.20
2022-08-26T20:50:02.763Z,15.10
2022-08-26T20:52:34.828Z,19.90
2022-08-26T20:55:07.844Z,21.10
2022-08-26T20:57:43.189Z,15.30
2022-08-26T21:00:22.547Z,14.30
2022-08-26T21:02:58.630Z,15.80
2022-08-26T21:05:30.571Z,15.00
2022-08-26T21:08:02.820Z,16.20
2022-08-26T21:10:34.916Z,23.50
2022-08-26T21:13:08.521Z,21.80
2022-08-26T21:15:40.892Z,22.60
2022-08-26T21:18:12.969Z,16.90
2022-08-26T21:20:45.023Z,17.80
2022-08-26T21:23:16.849Z,19.90
2022-08-26T21:25:49.758Z,15.40
2022-08-26T21:28:21.764Z,17.20
2022-08-26T21:30:53.834Z,15.50
2022-08-26T21:33:25.953Z,15.70
2022-08-26T21:36:01.768Z,15.40
2022-08-26T21:38:34.275Z,15.60
2022-08-26T21:41:12.094Z,18.80
2022-08-26T21:43:45.699Z,13.20
2022-08-26T21:46:20.412Z,14.90
2022-08-26T21:48:55.508Z,19.70
2022-08-26T21:51:36.469Z,24.30
2022-08-26T21:54:11.353Z,17.80
2022-08-26T21:56:46.886Z,16.40
2022-08-26T21:59:20.307Z,14.10
2022-08-26T22:01:52.725Z,15.10
2022-08-26T22:04:25.173Z,15.30
2022-08-26T22:06:59.065Z,12.50
2022-08-26T22:09:32.739Z,13.20
2022-08-26T22:12:05.145Z,14.80
2022-08-26T22:14:39.259Z,23.50
2022-08-26T22:17:11.304Z,16.60
2022-08-26T22:19:45.823Z,13.50
2022-08-26T22:22:18.792Z,13.20
2022-08-26T22:24:50.886Z,17.20
2022-08-26T22:27:23.253Z,15.00
2022-08-26T22:29:55.233Z,15.00
2022-08-26T22:32:27.135Z,12.80
2022-08-26T22:34:59.050Z,14.40
2022-08-26T22:37:30.930Z,14.80
2022-08-26T22:40:02.939Z,11.40
2022-08-26T22:42:35.562Z,17.60
2022-08-26T22:45:10.747Z,11.80
2022-08-26T22:47:43.433Z,12.30
2022-08-26T22:50:15.356Z,16.00
2022-08-26T22:52:47.386Z,14.50
2022-08-26T22:55:19.482Z,16.00
2022-08-26T22:57:51.432Z,13.30
2022-08-26T23:00:31.843Z,16.30
2022-08-26T23:03:05.662Z,13.00
2022-08-26T23:05:39.079Z,12.70
2022-08-26T23:08:12.384Z,15.50
2022-08-26T23:10:46.383Z,11.30
2022-08-26T23:13:19.060Z,13.10
2022-08-26T23:15:50.948Z,14.70
2022-08-26T23:18:22.860Z,13.60
2022-08-26T23:20:55.668Z,11.60
2022-08-26T23:23:27.976Z,12.20
2022-08-26T23:26:03.265Z,17.10
2022-08-26T23:28:39.706Z,15.80
2022-08-26T23:31:11.644Z,12.20
2022-08-26T23:34:00.897Z,13.50
2022-08-26T23:36:35.075Z,12.80
2022-08-26T23:39:08.151Z,13.20
2022-08-26T23:41:40.077Z,13.70
2022-08-26T23:44:12.488Z,14.50
2022-08-26T23:46:44.452Z,10.90
2022-08-26T23:49:16.413Z,14.20
2022-08-26T23:52:05.810Z,20.60
2022-08-26T23:54:37.856Z,16.00
2022-08-26T23:57:10.967Z,11.30
2022-08-26T23:59:42.881Z,10.60
